sensor_id;sensor_type;location;lat;lon;timestamp;P1;durP1;ratioP1;P2;durP2;ratioP2
13649;SDS011;6898;50.918;4.688;2022-08-11T00:01:37;8.73;;;5.43;;
13649;SDS011;6898;50.918;4.688;2022-08-11T00:04:11;8.48;;;5.10;;
13649;SDS011;6898;50.918;4.688;2022-08-11T00:06:40;8.20;;;5.38;;
13649;SDS011;6898;50.918;4.688;2022-08-11T00:09:09;7.07;;;5.33;;
13649;SDS011;6898;50.918;4.688;2022-08-11T00:11:41;8.27;;;5.50;;
13649;SDS011;6898;50.918;4.688;2022-08-11T00:14:12;10.32;;;5.97;;
13649;SDS011;6898;50.918;4.688;2022-08-11T00:16:43;8.75;;;5.78;;
13649;SDS011;6898;50.918;4.688;2022-08-11T00:19:20;9.00;;;5.80;;
13649;SDS011;6898;50.918;4.688;2022-08-11T00:21:50;8.93;;;5.38;;
13649;SDS011;6898;50.918;4.688;2022-08-11T00:24:19;13.60;;;5.05;;
13649;SDS011;6898;50.918;4.688;2022-08-11T00:26:48;7.63;;;5.37;;
13649;SDS011;6898;50.918;4.688;2022-08-11T00:29:18;9.38;;;5.53;;
13649;SDS011;6898;50.918;4.688;2022-08-11T00:31:49;8.30;;;5.43;;
13649;SDS011;6898;50.918;4.688;2022-08-11T00:34:19;7.40;;;5.32;;
13649;SDS011;6898;50.918;4.688;2022-08-11T00:36:50;8.60;;;5.40;;
13649;SDS011;6898;50.918;4.688;2022-08-11T00:39:21;10.60;;;5.50;;
13649;SDS011;6898;50.918;4.688;2022-08-11T00:42:09;10.75;;;5.22;;
13649;SDS011;6898;50.918;4.688;2022-08-11T00:44:45;7.45;;;4.95;;
13649;SDS011;6898;50.918;4.688;2022-08-11T00:47:20;8.45;;;5.30;;
13649;SDS011;6898;50.918;4.688;2022-08-11T00:49:57;8.63;;;5.18;;
13649;SDS011;6898;50.918;4.688;2022-08-11T00:52:43;8.38;;;5.43;;
13649;SDS011;6898;50.918;4.688;2022-08-11T00:55:29;8.98;;;5.20;;
13649;SDS011;6898;50.918;4.688;2022-08-11T01:01:01;9.73;;;5.32;;
13649;SDS011;6898;50.918;4.688;2022-08-11T01:03:38;8.82;;;5.50;;
13649;SDS011;6898;50.918;4.688;2022-08-11T01:14:55;10.23;;;6.10;;
13649;SDS011;6898;50.918;4.688;2022-08-11T01:20:25;11.27;;;7.05;;
13649;SDS011;6898;50.918;4.688;2022-08-11T01:23:16;14.20;;;8.13;;
13649;SDS011;6898;50.918;4.688;2022-08-11T01:26:19;11.40;;;7.65;;
13649;SDS011;6898;50.918;4.688;2022-08-11T01:35:02;13.52;;;6.72;;
13649;SDS011;6898;50.918;4.688;2022-08-11T01:37:52;8.88;;;6.30;;
13649;SDS011;6898;50.918;4.688;2022-08-11T01:40:30;7.95;;;6.20;;
13649;SDS011;6898;50.918;4.688;2022-08-11T01:46:10;8.85;;;6.68;;
13649;SDS011;6898;50.918;4.688;2022-08-11T01:48:40;8.57;;;6.78;;
13649;SDS011;6898;50.918;4.688;2022-08-11T01:54:00;10.37;;;7.20;;
13649;SDS011;6898;50.918;4.688;2022-08-11T01:56:37;11.75;;;7.50;;
13649;SDS011;6898;50.918;4.688;2022-08-11T01:59:12;10.13;;;7.20;;
13649;SDS011;6898;50.918;4.688;2022-08-11T02:04:44;11.30;;;6.85;;
13649;SDS011;6898;50.918;4.688;2022-08-11T02:07:16;9.23;;;6.50;;
13649;SDS011;6898;50.918;4.688;2022-08-11T02:09:52;9.55;;;6.05;;
13649;SDS011;6898;50.918;4.688;2022-08-11T02:12:31;6.80;;;6.03;;
13649;SDS011;6898;50.918;4.688;2022-08-11T02:15:07;9.33;;;6.43;;
13649;SDS011;6898;50.918;4.688;2022-08-11T02:17:49;9.40;;;6.30;;
13649;SDS011;6898;50.918;4.688;2022-08-11T02:20:22;8.85;;;6.43;;
13649;SDS011;6898;50.918;4.688;2022-08-11T02:23:12;10.05;;;6.25;;
13649;SDS011;6898;50.918;4.688;2022-08-11T02:26:04;7.15;;;6.45;;
13649;SDS011;6898;50.918;4.688;2022-08-11T02:28:37;7.93;;;6.25;;
13649;SDS011;6898;50.918;4.688;2022-08-11T02:31:11;8.57;;;6.53;;
13649;SDS011;6898;50.918;4.688;2022-08-11T02:34:00;8.15;;;6.60;;
13649;SDS011;6898;50.918;4.688;2022-08-11T02:36:33;10.82;;;6.55;;
13649;SDS011;6898;50.918;4.688;2022-08-11T02:39:05;9.85;;;6.35;;
13649;SDS011;6898;50.918;4.688;2022-08-11T02:41:38;8.25;;;6.53;;
13649;SDS011;6898;50.918;4.688;2022-08-11T02:44:28;7.10;;;6.40;;
13649;SDS011;6898;50.918;4.688;2022-08-11T02:47:02;8.77;;;6.30;;
13649;SDS011;6898;50.918;4.688;2022-08-11T02:49:40;7.95;;;6.13;;
13649;SDS011;6898;50.918;4.688;2022-08-11T02:52:24;8.00;;;6.40;;
13649;SDS011;6898;50.918;4.688;2022-08-11T02:55:02;8.43;;;6.15;;
13649;SDS011;6898;50.918;4.688;2022-08-11T02:57:34;7.55;;;6.43;;
13649;SDS011;6898;50.918;4.688;2022-08-11T03:00:06;7.73;;;6.00;;
13649;SDS011;6898;50.918;4.688;2022-08-11T03:05:35;8.00;;;6.20;;
13649;SDS011;6898;50.918;4.688;2022-08-11T03:11:00;8.37;;;6.40;;
13649;SDS011;6898;50.918;4.688;2022-08-11T03:13:53;8.52;;;6.65;;
13649;SDS011;6898;50.918;4.688;2022-08-11T03:16:45;11.33;;;7.20;;
13649;SDS011;6898;50.918;4.688;2022-08-11T03:19:21;8.05;;;6.30;;
13649;SDS011;6898;50.918;4.688;2022-08-11T03:21:55;7.95;;;6.82;;
13649;SDS011;6898;50.918;4.688;2022-08-11T03:24:28;7.27;;;6.33;;
13649;SDS011;6898;50.918;4.688;2022-08-11T03:27:01;8.32;;;6.20;;
13649;SDS011;6898;50.918;4.688;2022-08-11T03:29:33;7.97;;;6.43;;
13649;SDS011;6898;50.918;4.688;2022-08-11T03:32:04;7.80;;;6.50;;
13649;SDS011;6898;50.918;4.688;2022-08-11T03:34:35;7.90;;;6.20;;
13649;SDS011;6898;50.918;4.688;2022-08-11T03:37:17;7.80;;;6.45;;
13649;SDS011;6898;50.918;4.688;2022-08-11T03:40:03;6.80;;;6.10;;
13649;SDS011;6898;50.918;4.688;2022-08-11T03:42:40;12.27;;;7.20;;
13649;SDS011;6898;50.918;4.688;2022-08-11T03:45:16;9.73;;;6.45;;
13649;SDS011;6898;50.918;4.688;2022-08-11T03:47:49;9.90;;;6.45;;
13649;SDS011;6898;50.918;4.688;2022-08-11T03:50:27;7.40;;;6.43;;
13649;SDS011;6898;50.918;4.688;2022-08-11T03:53:01;7.82;;;6.32;;
13649;SDS011;6898;50.918;4.688;2022-08-11T03:55:38;8.60;;;6.68;;
13649;SDS011;6898;50.918;4.688;2022-08-11T03:58:27;8.85;;;6.35;;
13649;SDS011;6898;50.918;4.688;2022-08-11T04:04:11;6.30;;;5.70;;
13649;SDS011;6898;50.918;4.688;2022-08-11T04:06:49;7.90;;;6.40;;
13649;SDS011;6898;50.918;4.688;2022-08-11T04:12:18;7.40;;;6.07;;
13649;SDS011;6898;50.918;4.688;2022-08-11T04:14:56;6.70;;;6.00;;
13649;SDS011;6898;50.918;4.688;2022-08-11T04:18:05;8.70;;;6.47;;
13649;SDS011;6898;50.918;4.688;2022-08-11T04:20:50;9.27;;;6.60;;
13649;SDS011;6898;50.918;4.688;2022-08-11T04:23:39;8.93;;;6.20;;
13649;SDS011;6898;50.918;4.688;2022-08-11T04:26:29;8.50;;;5.90;;
13649;SDS011;6898;50.918;4.688;2022-08-11T04:29:02;7.87;;;6.20;;
13649;SDS011;6898;50.918;4.688;2022-08-11T04:31:35;7.10;;;6.15;;
13649;SDS011;6898;50.918;4.688;2022-08-11T04:34:11;8.88;;;6.50;;
13649;SDS011;6898;50.918;4.688;2022-08-11T04:37:08;7.10;;;6.20;;
13649;SDS011;6898;50.918;4.688;2022-08-11T04:40:02;7.57;;;6.05;;
13649;SDS011;6898;50.918;4.688;2022-08-11T04:42:54;7.10;;;6.40;;
13649;SDS011;6898;50.918;4.688;2022-08-11T04:49:02;6.60;;;6.00;;
13649;SDS011;6898;50.918;4.688;2022-08-11T04:52:10;7.38;;;6.50;;
13649;SDS011;6898;50.918;4.688;2022-08-11T04:55:06;8.32;;;6.70;;
13649;SDS011;6898;50.918;4.688;2022-08-11T04:57:58;7.40;;;6.20;;
13649;SDS011;6898;50.918;4.688;2022-08-11T05:00:50;10.52;;;6.63;;
13649;SDS011;6898;50.918;4.688;2022-08-11T05:03:42;9.20;;;6.72;;
13649;SDS011;6898;50.918;4.688;2022-08-11T05:11:49;8.15;;;6.82;;
13649;SDS011;6898;50.918;4.688;2022-08-11T05:14:24;11.60;;;6.75;;
13649;SDS011;6898;50.918;4.688;2022-08-11T05:17:13;9.50;;;6.75;;
13649;SDS011;6898;50.918;4.688;2022-08-11T05:20:07;7.28;;;6.28;;
13649;SDS011;6898;50.918;4.688;2022-08-11T05:22:53;10.73;;;6.63;;
13649;SDS011;6898;50.918;4.688;2022-08-11T05:25:42;8.00;;;6.60;;
13649;SDS011;6898;50.918;4.688;2022-08-11T05:28:31;6.90;;;6.05;;
13649;SDS011;6898;50.918;4.688;2022-08-11T05:31:18;7.65;;;6.60;;
13649;SDS011;6898;50.918;4.688;2022-08-11T05:34:07;9.48;;;6.22;;
13649;SDS011;6898;50.918;4.688;2022-08-11T05:36:56;10.07;;;7.18;;
13649;SDS011;6898;50.918;4.688;2022-08-11T05:39:39;9.33;;;6.80;;
13649;SDS011;6898;50.918;4.688;2022-08-11T05:42:26;8.98;;;6.72;;
13649;SDS011;6898;50.918;4.688;2022-08-11T05:45:16;9.32;;;6.95;;
13649;SDS011;6898;50.918;4.688;2022-08-11T05:48:03;9.13;;;6.97;;
13649;SDS011;6898;50.918;4.688;2022-08-11T05:50:50;9.82;;;6.75;;
13649;SDS011;6898;50.918;4.688;2022-08-11T05:53:46;9.45;;;7.00;;
13649;SDS011;6898;50.918;4.688;2022-08-11T05:56:33;9.00;;;6.80;;
13649;SDS011;6898;50.918;4.688;2022-08-11T05:59:02;8.68;;;6.78;;
13649;SDS011;6898;50.918;4.688;2022-08-11T06:01:32;10.77;;;6.65;;
13649;SDS011;6898;50.918;4.688;2022-08-11T06:04:04;10.10;;;6.57;;
13649;SDS011;6898;50.918;4.688;2022-08-11T06:06:48;7.90;;;6.90;;
13649;SDS011;6898;50.918;4.688;2022-08-11T06:09:25;7.82;;;6.50;;
13649;SDS011;6898;50.918;4.688;2022-08-11T06:11:56;9.02;;;7.13;;
13649;SDS011;6898;50.918;4.688;2022-08-11T06:14:25;8.82;;;7.05;;
13649;SDS011;6898;50.918;4.688;2022-08-11T06:17:20;10.40;;;7.10;;
13649;SDS011;6898;50.918;4.688;2022-08-11T06:19:49;8.88;;;7.25;;
13649;SDS011;6898;50.918;4.688;2022-08-11T06:22:22;8.43;;;6.60;;
13649;SDS011;6898;50.918;4.688;2022-08-11T06:24:52;9.07;;;6.68;;
13649;SDS011;6898;50.918;4.688;2022-08-11T06:27:22;9.10;;;6.85;;
13649;SDS011;6898;50.918;4.688;2022-08-11T06:29:52;7.47;;;6.43;;
13649;SDS011;6898;50.918;4.688;2022-08-11T06:32:26;10.07;;;6.68;;
13649;SDS011;6898;50.918;4.688;2022-08-11T06:35:10;8.02;;;6.80;;
13649;SDS011;6898;50.918;4.688;2022-08-11T06:37:47;7.25;;;6.28;;
13649;SDS011;6898;50.918;4.688;2022-08-11T06:40:25;8.35;;;6.30;;
13649;SDS011;6898;50.918;4.688;2022-08-11T06:42:57;9.32;;;6.20;;
13649;SDS011;6898;50.918;4.688;2022-08-11T06:45:29;7.27;;;6.53;;
13649;SDS011;6898;50.918;4.688;2022-08-11T06:48:01;8.75;;;6.32;;
13649;SDS011;6898;50.918;4.688;2022-08-11T06:50:31;8.33;;;6.27;;
13649;SDS011;6898;50.918;4.688;2022-08-11T06:53:18;10.05;;;6.25;;
13649;SDS011;6898;50.918;4.688;2022-08-11T06:55:47;10.02;;;6.40;;
13649;SDS011;6898;50.918;4.688;2022-08-11T06:58:35;10.17;;;6.00;;
13649;SDS011;6898;50.918;4.688;2022-08-11T07:01:25;10.85;;;6.45;;
13649;SDS011;6898;50.918;4.688;2022-08-11T07:04:01;11.15;;;6.00;;
13649;SDS011;6898;50.918;4.688;2022-08-11T07:06:34;9.85;;;5.68;;
13649;SDS011;6898;50.918;4.688;2022-08-11T07:09:07;8.52;;;5.93;;
13649;SDS011;6898;50.918;4.688;2022-08-11T07:11:59;9.43;;;6.00;;
13649;SDS011;6898;50.918;4.688;2022-08-11T07:14:49;6.80;;;5.80;;
13649;SDS011;6898;50.918;4.688;2022-08-11T07:17:37;8.00;;;5.60;;
13649;SDS011;6898;50.918;4.688;2022-08-11T07:20:08;11.60;;;5.53;;
13649;SDS011;6898;50.918;4.688;2022-08-11T07:22:56;8.85;;;5.75;;
13649;SDS011;6898;50.918;4.688;2022-08-11T07:25:45;9.50;;;5.82;;
13649;SDS011;6898;50.918;4.688;2022-08-11T07:28:32;10.03;;;5.67;;
13649;SDS011;6898;50.918;4.688;2022-08-11T07:31:20;8.48;;;5.45;;
13649;SDS011;6898;50.918;4.688;2022-08-11T07:33:52;9.85;;;5.57;;
13649;SDS011;6898;50.918;4.688;2022-08-11T07:36:25;9.63;;;5.18;;
13649;SDS011;6898;50.918;4.688;2022-08-11T07:38:55;9.15;;;5.57;;
13649;SDS011;6898;50.918;4.688;2022-08-11T07:41:24;8.55;;;5.70;;
13649;SDS011;6898;50.918;4.688;2022-08-11T07:43:56;9.97;;;5.30;;
13649;SDS011;6898;50.918;4.688;2022-08-11T07:46:34;16.40;;;5.80;;
13649;SDS011;6898;50.918;4.688;2022-08-11T07:49:24;8.07;;;4.80;;
13649;SDS011;6898;50.918;4.688;2022-08-11T07:52:13;7.78;;;5.00;;
13649;SDS011;6898;50.918;4.688;2022-08-11T07:55:05;8.50;;;5.18;;
13649;SDS011;6898;50.918;4.688;2022-08-11T07:57:34;12.90;;;5.10;;
13649;SDS011;6898;50.918;4.688;2022-08-11T08:00:20;7.80;;;4.70;;
13649;SDS011;6898;50.918;4.688;2022-08-11T08:03:06;8.35;;;4.72;;
13649;SDS011;6898;50.918;4.688;2022-08-11T08:05:53;8.43;;;4.68;;
13649;SDS011;6898;50.918;4.688;2022-08-11T08:08:40;7.77;;;4.93;;
13649;SDS011;6898;50.918;4.688;2022-08-11T08:11:27;11.38;;;5.10;;
13649;SDS011;6898;50.918;4.688;2022-08-11T08:14:13;8.75;;;4.88;;
13649;SDS011;6898;50.918;4.688;2022-08-11T08:17:02;9.80;;;5.30;;
13649;SDS011;6898;50.918;4.688;2022-08-11T08:19:48;11.20;;;4.80;;
13649;SDS011;6898;50.918;4.688;2022-08-11T08:22:18;7.20;;;5.00;;
13649;SDS011;6898;50.918;4.688;2022-08-11T08:24:48;7.43;;;4.82;;
13649;SDS011;6898;50.918;4.688;2022-08-11T08:27:16;8.13;;;4.95;;
13649;SDS011;6898;50.918;4.688;2022-08-11T08:29:45;9.20;;;4.65;;
13649;SDS011;6898;50.918;4.688;2022-08-11T08:32:32;6.78;;;4.43;;
13649;SDS011;6898;50.918;4.688;2022-08-11T08:35:01;6.57;;;4.27;;
13649;SDS011;6898;50.918;4.688;2022-08-11T08:37:30;7.10;;;4.50;;
13649;SDS011;6898;50.918;4.688;2022-08-11T08:40:00;7.60;;;4.35;;
13649;SDS011;6898;50.918;4.688;2022-08-11T08:42:29;8.05;;;4.57;;
13649;SDS011;6898;50.918;4.688;2022-08-11T08:45:01;6.60;;;4.13;;
13649;SDS011;6898;50.918;4.688;2022-08-11T08:47:31;7.67;;;4.40;;
13649;SDS011;6898;50.918;4.688;2022-08-11T08:50:03;6.03;;;4.38;;
13649;SDS011;6898;50.918;4.688;2022-08-11T08:52:34;7.40;;;4.18;;
13649;SDS011;6898;50.918;4.688;2022-08-11T08:55:08;7.13;;;4.40;;
13649;SDS011;6898;50.918;4.688;2022-08-11T08:57:39;7.72;;;4.10;;
13649;SDS011;6898;50.918;4.688;2022-08-11T09:00:13;7.35;;;4.10;;
13649;SDS011;6898;50.918;4.688;2022-08-11T09:02:44;6.40;;;3.85;;
13649;SDS011;6898;50.918;4.688;2022-08-11T09:05:15;7.22;;;3.80;;
13649;SDS011;6898;50.918;4.688;2022-08-11T09:07:44;4.88;;;4.00;;
13649;SDS011;6898;50.918;4.688;2022-08-11T09:10:14;6.60;;;4.13;;
13649;SDS011;6898;50.918;4.688;2022-08-11T09:12:46;9.18;;;4.28;;
13649;SDS011;6898;50.918;4.688;2022-08-11T09:15:15;6.35;;;4.03;;
13649;SDS011;6898;50.918;4.688;2022-08-11T09:17:46;8.10;;;4.28;;
13649;SDS011;6898;50.918;4.688;2022-08-11T09:20:16;8.68;;;4.28;;
13649;SDS011;6898;50.918;4.688;2022-08-11T09:22:45;4.55;;;4.03;;
13649;SDS011;6898;50.918;4.688;2022-08-11T09:25:54;6.18;;;4.35;;
13649;SDS011;6898;50.918;4.688;2022-08-11T09:28:40;7.57;;;4.22;;
13649;SDS011;6898;50.918;4.688;2022-08-11T09:31:09;7.88;;;4.30;;
13649;SDS011;6898;50.918;4.688;2022-08-11T09:33:38;9.00;;;4.50;;
13649;SDS011;6898;50.918;4.688;2022-08-11T09:36:07;8.05;;;4.18;;
13649;SDS011;6898;50.918;4.688;2022-08-11T09:38:53;6.73;;;4.30;;
13649;SDS011;6898;50.918;4.688;2022-08-11T09:41:42;7.60;;;4.18;;
13649;SDS011;6898;50.918;4.688;2022-08-11T09:44:10;7.20;;;3.90;;
13649;SDS011;6898;50.918;4.688;2022-08-11T09:46:57;9.52;;;4.30;;
13649;SDS011;6898;50.918;4.688;2022-08-11T09:49:25;5.70;;;3.93;;
13649;SDS011;6898;50.918;4.688;2022-08-11T09:51:55;6.40;;;3.92;;
13649;SDS011;6898;50.918;4.688;2022-08-11T09:54:23;6.15;;;3.70;;
13649;SDS011;6898;50.918;4.688;2022-08-11T09:56:53;6.22;;;3.97;;
13649;SDS011;6898;50.918;4.688;2022-08-11T09:59:39;5.73;;;3.80;;
13649;SDS011;6898;50.918;4.688;2022-08-11T10:02:08;7.25;;;3.92;;
13649;SDS011;6898;50.918;4.688;2022-08-11T10:04:39;7.05;;;3.95;;
13649;SDS011;6898;50.918;4.688;2022-08-11T10:07:07;7.93;;;3.87;;
13649;SDS011;6898;50.918;4.688;2022-08-11T10:09:37;6.25;;;3.92;;
13649;SDS011;6898;50.918;4.688;2022-08-11T10:12:09;6.93;;;3.80;;
13649;SDS011;6898;50.918;4.688;2022-08-11T10:14:40;7.28;;;3.83;;
13649;SDS011;6898;50.918;4.688;2022-08-11T10:17:29;4.50;;;3.80;;
13649;SDS011;6898;50.918;4.688;2022-08-11T10:19:59;11.38;;;4.03;;
13649;SDS011;6898;50.918;4.688;2022-08-11T10:22:31;8.18;;;4.07;;
13649;SDS011;6898;50.918;4.688;2022-08-11T10:25:17;6.88;;;3.60;;
13649;SDS011;6898;50.918;4.688;2022-08-11T10:28:06;5.53;;;4.00;;
13649;SDS011;6898;50.918;4.688;2022-08-11T10:30:35;8.13;;;3.78;;
13649;SDS011;6898;50.918;4.688;2022-08-11T10:33:22;6.85;;;4.20;;
13649;SDS011;6898;50.918;4.688;2022-08-11T10:36:10;6.82;;;3.97;;
13649;SDS011;6898;50.918;4.688;2022-08-11T10:38:39;6.10;;;3.75;;
13649;SDS011;6898;50.918;4.688;2022-08-11T10:41:08;8.43;;;4.00;;
13649;SDS011;6898;50.918;4.688;2022-08-11T10:43:56;7.38;;;3.50;;
13649;SDS011;6898;50.918;4.688;2022-08-11T10:46:24;6.22;;;3.80;;
13649;SDS011;6898;50.918;4.688;2022-08-11T10:49:10;6.97;;;3.85;;
13649;SDS011;6898;50.918;4.688;2022-08-11T10:51:39;8.75;;;4.10;;
13649;SDS011;6898;50.918;4.688;2022-08-11T10:54:25;8.48;;;3.70;;
13649;SDS011;6898;50.918;4.688;2022-08-11T10:57:12;4.20;;;3.63;;
13649;SDS011;6898;50.918;4.688;2022-08-11T11:00:00;5.38;;;3.65;;
13649;SDS011;6898;50.918;4.688;2022-08-11T11:02:31;6.78;;;3.50;;
13649;SDS011;6898;50.918;4.688;2022-08-11T11:05:01;6.25;;;3.47;;
13649;SDS011;6898;50.918;4.688;2022-08-11T11:07:35;5.28;;;3.60;;
13649;SDS011;6898;50.918;4.688;2022-08-11T11:10:05;5.03;;;3.50;;
13649;SDS011;6898;50.918;4.688;2022-08-11T11:12:35;6.77;;;3.53;;
13649;SDS011;6898;50.918;4.688;2022-08-11T11:15:25;6.33;;;3.57;;
13649;SDS011;6898;50.918;4.688;2022-08-11T11:18:14;5.68;;;3.55;;
13649;SDS011;6898;50.918;4.688;2022-08-11T11:20:45;7.40;;;3.40;;
13649;SDS011;6898;50.918;4.688;2022-08-11T11:23:16;5.57;;;3.40;;
13649;SDS011;6898;50.918;4.688;2022-08-11T11:25:51;4.20;;;3.25;;
13649;SDS011;6898;50.918;4.688;2022-08-11T11:28:48;7.45;;;3.60;;
13649;SDS011;6898;50.918;4.688;2022-08-11T11:31:24;5.68;;;3.58;;
13649;SDS011;6898;50.918;4.688;2022-08-11T11:34:02;4.47;;;3.17;;
13649;SDS011;6898;50.918;4.688;2022-08-11T11:36:35;8.05;;;3.30;;
13649;SDS011;6898;50.918;4.688;2022-08-11T11:39:07;4.70;;;3.08;;
13649;SDS011;6898;50.918;4.688;2022-08-11T11:41:37;6.75;;;3.40;;
13649;SDS011;6898;50.918;4.688;2022-08-11T11:44:05;5.27;;;3.20;;
13649;SDS011;6898;50.918;4.688;2022-08-11T11:46:35;10.77;;;3.30;;
13649;SDS011;6898;50.918;4.688;2022-08-11T11:49:03;6.38;;;3.35;;
13649;SDS011;6898;50.918;4.688;2022-08-11T11:51:35;6.57;;;3.33;;
13649;SDS011;6898;50.918;4.688;2022-08-11T11:54:04;5.68;;;3.10;;
13649;SDS011;6898;50.918;4.688;2022-08-11T11:56:33;4.50;;;3.30;;
13649;SDS011;6898;50.918;4.688;2022-08-11T11:59:02;6.38;;;2.97;;
13649;SDS011;6898;50.918;4.688;2022-08-11T12:01:50;5.13;;;2.90;;
13649;SDS011;6898;50.918;4.688;2022-08-11T12:04:19;5.35;;;2.90;;
13649;SDS011;6898;50.918;4.688;2022-08-11T12:06:48;6.07;;;3.10;;
13649;SDS011;6898;50.918;4.688;2022-08-11T12:09:38;5.97;;;3.00;;
13649;SDS011;6898;50.918;4.688;2022-08-11T12:12:07;4.72;;;3.03;;
13649;SDS011;6898;50.918;4.688;2022-08-11T12:14:53;5.00;;;3.15;;
13649;SDS011;6898;50.918;4.688;2022-08-11T12:17:23;6.60;;;3.00;;
13649;SDS011;6898;50.918;4.688;2022-08-11T12:19:52;4.65;;;2.90;;
13649;SDS011;6898;50.918;4.688;2022-08-11T12:22:20;5.20;;;2.70;;
13649;SDS011;6898;50.918;4.688;2022-08-11T12:25:07;5.25;;;2.88;;
13649;SDS011;6898;50.918;4.688;2022-08-11T12:27:53;4.93;;;2.67;;
13649;SDS011;6898;50.918;4.688;2022-08-11T12:30:22;5.00;;;2.65;;
13649;SDS011;6898;50.918;4.688;2022-08-11T12:32:52;4.28;;;2.70;;
13649;SDS011;6898;50.918;4.688;2022-08-11T12:35:20;3.78;;;2.90;;
13649;SDS011;6898;50.918;4.688;2022-08-11T12:37:50;4.68;;;2.90;;
13649;SDS011;6898;50.918;4.688;2022-08-11T12:40:23;3.83;;;2.72;;
13649;SDS011;6898;50.918;4.688;2022-08-11T12:43:15;5.30;;;3.00;;
13649;SDS011;6898;50.918;4.688;2022-08-11T12:46:02;4.80;;;2.90;;
13649;SDS011;6898;50.918;4.688;2022-08-11T12:48:34;4.10;;;2.88;;
13649;SDS011;6898;50.918;4.688;2022-08-11T12:51:21;3.72;;;2.97;;
13649;SDS011;6898;50.918;4.688;2022-08-11T12:54:09;7.17;;;2.90;;
13649;SDS011;6898;50.918;4.688;2022-08-11T12:56:40;4.90;;;2.90;;
13649;SDS011;6898;50.918;4.688;2022-08-11T12:59:27;3.90;;;2.90;;
13649;SDS011;6898;50.918;4.688;2022-08-11T13:02:14;6.00;;;3.10;;
13649;SDS011;6898;50.918;4.688;2022-08-11T13:05:02;6.10;;;3.20;;
13649;SDS011;6898;50.918;4.688;2022-08-11T13:07:31;4.05;;;3.17;;
13649;SDS011;6898;50.918;4.688;2022-08-11T13:10:02;6.15;;;3.33;;
13649;SDS011;6898;50.918;4.688;2022-08-11T13:12:31;7.05;;;3.30;;
13649;SDS011;6898;50.918;4.688;2022-08-11T13:15:15;4.05;;;3.10;;
13649;SDS011;6898;50.918;4.688;2022-08-11T13:17:44;5.03;;;3.23;;
13649;SDS011;6898;50.918;4.688;2022-08-11T13:20:16;6.22;;;3.17;;
13649;SDS011;6898;50.918;4.688;2022-08-11T13:22:47;4.07;;;3.10;;
13649;SDS011;6898;50.918;4.688;2022-08-11T13:25:16;4.78;;;3.20;;
13649;SDS011;6898;50.918;4.688;2022-08-11T13:27:45;4.07;;;3.30;;
13649;SDS011;6898;50.918;4.688;2022-08-11T13:30:14;5.60;;;3.40;;
13649;SDS011;6898;50.918;4.688;2022-08-11T13:33:13;6.95;;;3.75;;
13649;SDS011;6898;50.918;4.688;2022-08-11T13:35:45;5.15;;;3.30;;
13649;SDS011;6898;50.918;4.688;2022-08-11T13:38:14;4.45;;;3.10;;
13649;SDS011;6898;50.918;4.688;2022-08-11T13:40:45;6.85;;;3.47;;
13649;SDS011;6898;50.918;4.688;2022-08-11T13:43:22;7.28;;;3.45;;
13649;SDS011;6898;50.918;4.688;2022-08-11T13:45:50;5.63;;;3.40;;
13649;SDS011;6898;50.918;4.688;2022-08-11T13:48:39;8.75;;;3.70;;
13649;SDS011;6898;50.918;4.688;2022-08-11T13:51:10;5.50;;;3.50;;
13649;SDS011;6898;50.918;4.688;2022-08-11T13:53:59;4.88;;;3.33;;
13649;SDS011;6898;50.918;4.688;2022-08-11T13:56:28;6.68;;;3.65;;
13649;SDS011;6898;50.918;4.688;2022-08-11T13:58:56;3.92;;;3.50;;
13649;SDS011;6898;50.918;4.688;2022-08-11T14:01:26;4.82;;;3.58;;
13649;SDS011;6898;50.918;4.688;2022-08-11T14:03:57;5.70;;;3.65;;
13649;SDS011;6898;50.918;4.688;2022-08-11T14:06:28;5.07;;;3.38;;
13649;SDS011;6898;50.918;4.688;2022-08-11T14:08:56;7.70;;;3.22;;
13649;SDS011;6898;50.918;4.688;2022-08-11T14:11:25;6.95;;;3.72;;
13649;SDS011;6898;50.918;4.688;2022-08-11T14:14:15;6.68;;;3.58;;
13649;SDS011;6898;50.918;4.688;2022-08-11T14:16:46;5.50;;;3.55;;
13649;SDS011;6898;50.918;4.688;2022-08-11T14:19:16;8.73;;;3.50;;
13649;SDS011;6898;50.918;4.688;2022-08-11T14:21:48;9.02;;;3.72;;
13649;SDS011;6898;50.918;4.688;2022-08-11T14:24:34;11.20;;;3.70;;
13649;SDS011;6898;50.918;4.688;2022-08-11T14:27:03;7.25;;;3.30;;
13649;SDS011;6898;50.918;4.688;2022-08-11T14:29:32;8.75;;;3.80;;
13649;SDS011;6898;50.918;4.688;2022-08-11T14:32:04;5.40;;;3.58;;
13649;SDS011;6898;50.918;4.688;2022-08-11T14:34:34;5.57;;;3.38;;
13649;SDS011;6898;50.918;4.688;2022-08-11T14:37:05;6.05;;;3.78;;
13649;SDS011;6898;50.918;4.688;2022-08-11T14:39:40;7.03;;;3.67;;
13649;SDS011;6898;50.918;4.688;2022-08-11T14:42:11;6.47;;;3.42;;
13649;SDS011;6898;50.918;4.688;2022-08-11T14:44:58;4.43;;;3.60;;
13649;SDS011;6898;50.918;4.688;2022-08-11T14:47:46;6.35;;;3.65;;
13649;SDS011;6898;50.918;4.688;2022-08-11T14:50:15;4.80;;;3.50;;
13649;SDS011;6898;50.918;4.688;2022-08-11T14:52:50;4.80;;;3.60;;
13649;SDS011;6898;50.918;4.688;2022-08-11T14:55:21;6.78;;;3.30;;
13649;SDS011;6898;50.918;4.688;2022-08-11T14:58:07;6.87;;;3.57;;
13649;SDS011;6898;50.918;4.688;2022-08-11T15:00:36;5.80;;;3.40;;
13649;SDS011;6898;50.918;4.688;2022-08-11T15:03:06;5.22;;;3.42;;
13649;SDS011;6898;50.918;4.688;2022-08-11T15:05:45;4.97;;;3.60;;
13649;SDS011;6898;50.918;4.688;2022-08-11T15:08:19;5.25;;;3.60;;
13649;SDS011;6898;50.918;4.688;2022-08-11T15:11:07;8.00;;;3.50;;
13649;SDS011;6898;50.918;4.688;2022-08-11T15:13:58;5.80;;;3.50;;
13649;SDS011;6898;50.918;4.688;2022-08-11T15:16:27;6.22;;;3.40;;
13649;SDS011;6898;50.918;4.688;2022-08-11T15:19:13;7.97;;;3.40;;
13649;SDS011;6898;50.918;4.688;2022-08-11T15:21:44;7.95;;;3.60;;
13649;SDS011;6898;50.918;4.688;2022-08-11T15:24:32;5.28;;;3.50;;
13649;SDS011;6898;50.918;4.688;2022-08-11T15:27:02;4.90;;;3.08;;
13649;SDS011;6898;50.918;4.688;2022-08-11T15:29:49;7.38;;;3.25;;
13649;SDS011;6898;50.918;4.688;2022-08-11T15:32:32;5.78;;;3.15;;
13649;SDS011;6898;50.918;4.688;2022-08-11T15:35:19;5.45;;;3.10;;
13649;SDS011;6898;50.918;4.688;2022-08-11T15:38:05;4.03;;;3.03;;
13649;SDS011;6898;50.918;4.688;2022-08-11T15:40:38;4.18;;;2.90;;
13649;SDS011;6898;50.918;4.688;2022-08-11T15:43:25;6.17;;;3.00;;
13649;SDS011;6898;50.918;4.688;2022-08-11T15:46:13;6.40;;;3.20;;
13649;SDS011;6898;50.918;4.688;2022-08-11T15:48:43;4.63;;;2.90;;
13649;SDS011;6898;50.918;4.688;2022-08-11T15:51:15;4.97;;;3.00;;
13649;SDS011;6898;50.918;4.688;2022-08-11T15:53:49;3.70;;;2.90;;
13649;SDS011;6898;50.918;4.688;2022-08-11T15:56:21;7.53;;;2.97;;
13649;SDS011;6898;50.918;4.688;2022-08-11T15:58:51;5.40;;;3.00;;
13649;SDS011;6898;50.918;4.688;2022-08-11T16:01:38;6.55;;;3.17;;
13649;SDS011;6898;50.918;4.688;2022-08-11T16:04:25;5.57;;;2.88;;
13649;SDS011;6898;50.918;4.688;2022-08-11T16:06:56;9.05;;;3.17;;
13649;SDS011;6898;50.918;4.688;2022-08-11T16:09:28;5.43;;;3.00;;
13649;SDS011;6898;50.918;4.688;2022-08-11T16:12:00;6.30;;;3.10;;
13649;SDS011;6898;50.918;4.688;2022-08-11T16:14:30;6.78;;;2.95;;
13649;SDS011;6898;50.918;4.688;2022-08-11T16:17:16;5.53;;;2.95;;
13649;SDS011;6898;50.918;4.688;2022-08-11T16:19:47;6.68;;;3.00;;
13649;SDS011;6898;50.918;4.688;2022-08-11T16:22:19;7.97;;;2.97;;
13649;SDS011;6898;50.918;4.688;2022-08-11T16:24:57;4.70;;;2.85;;
13649;SDS011;6898;50.918;4.688;2022-08-11T16:27:28;4.67;;;2.80;;
13649;SDS011;6898;50.918;4.688;2022-08-11T16:29:59;4.97;;;2.90;;
13649;SDS011;6898;50.918;4.688;2022-08-11T16:32:28;5.47;;;2.90;;
13649;SDS011;6898;50.918;4.688;2022-08-11T16:34:59;4.10;;;3.00;;
13649;SDS011;6898;50.918;4.688;2022-08-11T16:37:45;5.75;;;2.90;;
13649;SDS011;6898;50.918;4.688;2022-08-11T16:40:32;6.88;;;3.05;;
13649;SDS011;6898;50.918;4.688;2022-08-11T16:43:02;4.65;;;2.85;;
13649;SDS011;6898;50.918;4.688;2022-08-11T16:45:50;5.55;;;2.90;;
13649;SDS011;6898;50.918;4.688;2022-08-11T16:48:37;6.25;;;2.95;;
13649;SDS011;6898;50.918;4.688;2022-08-11T16:51:07;7.40;;;3.13;;
13649;SDS011;6898;50.918;4.688;2022-08-11T16:53:35;8.18;;;3.20;;